sensor_id;sensor_type;location;lat;lon;timestamp;P1;durP1;ratioP1;P2;durP2;ratioP2
16524;SDS011;8375;33.594;-117.718;2023-12-04T00:00:57;7.73;;;3.10;;
16524;SDS011;8375;33.594;-117.718;2023-12-04T00:03:26;5.37;;;3.23;;
16524;SDS011;8375;33.594;-117.718;2023-12-04T00:05:54;6.50;;;2.93;;
16524;SDS011;8375;33.594;-117.718;2023-12-04T00:08:25;8.07;;;2.90;;
16524;SDS011;8375;33.594;-117.718;2023-12-04T00:10:53;5.23;;;2.80;;
16524;SDS011;8375;33.594;-117.718;2023-12-04T00:13:24;7.10;;;3.17;;
16524;SDS011;8375;33.594;-117.718;2023-12-04T00:15:56;9.00;;;3.30;;
16524;SDS011;8375;33.594;-117.718;2023-12-04T00:18:24;6.40;;;3.50;;
16524;SDS011;8375;33.594;-117.718;2023-12-04T00:20:53;6.17;;;3.23;;
16524;SDS011;8375;33.594;-117.718;2023-12-04T00:23:22;7.50;;;3.00;;
16524;SDS011;8375;33.594;-117.718;2023-12-04T00:25:53;7.10;;;3.40;;
16524;SDS011;8375;33.594;-117.718;2023-12-04T00:28:22;4.90;;;3.27;;
16524;SDS011;8375;33.594;-117.718;2023-12-04T00:30:51;9.20;;;3.47;;
16524;SDS011;8375;33.594;-117.718;2023-12-04T00:33:19;4.57;;;3.33;;
16524;SDS011;8375;33.594;-117.718;2023-12-04T00:35:48;6.50;;;3.43;;
16524;SDS011;8375;33.594;-117.718;2023-12-04T00:38:17;5.00;;;3.43;;
16524;SDS011;8375;33.594;-117.718;2023-12-04T00:40:46;7.17;;;3.80;;
16524;SDS011;8375;33.594;-117.718;2023-12-04T00:43:16;6.60;;;3.50;;
16524;SDS011;8375;33.594;-117.718;2023-12-04T00:45:45;5.23;;;2.93;;
16524;SDS011;8375;33.594;-117.718;2023-12-04T00:48:13;6.67;;;3.43;;
16524;SDS011;8375;33.594;-117.718;2023-12-04T00:50:42;6.20;;;3.33;;
16524;SDS011;8375;33.594;-117.718;2023-12-04T00:53:11;5.13;;;3.47;;
16524;SDS011;8375;33.594;-117.718;2023-12-04T00:55:39;6.37;;;3.60;;
16524;SDS011;8375;33.594;-117.718;2023-12-04T00:58:08;6.60;;;3.33;;
16524;SDS011;8375;33.594;-117.718;2023-12-04T01:00:38;6.50;;;4.10;;
16524;SDS011;8375;33.594;-117.718;2023-12-04T01:03:07;8.17;;;4.97;;
16524;SDS011;8375;33.594;-117.718;2023-12-04T01:05:36;5.57;;;4.10;;
16524;SDS011;8375;33.594;-117.718;2023-12-04T01:08:05;6.83;;;3.90;;
16524;SDS011;8375;33.594;-117.718;2023-12-04T01:10:34;7.87;;;3.87;;
16524;SDS011;8375;33.594;-117.718;2023-12-04T01:13:02;10.00;;;4.73;;
16524;SDS011;8375;33.594;-117.718;2023-12-04T01:15:32;5.77;;;4.17;;
16524;SDS011;8375;33.594;-117.718;2023-12-04T01:18:03;24.33;;;19.63;;
16524;SDS011;8375;33.594;-117.718;2023-12-04T01:20:32;35.50;;;23.77;;
16524;SDS011;8375;33.594;-117.718;2023-12-04T01:23:02;19.70;;;13.63;;
16524;SDS011;8375;33.594;-117.718;2023-12-04T01:25:30;5.93;;;3.63;;
16524;SDS011;8375;33.594;-117.718;2023-12-04T01:27:59;9.67;;;5.07;;
16524;SDS011;8375;33.594;-117.718;2023-12-04T01:30:28;27.90;;;21.30;;
16524;SDS011;8375;33.594;-117.718;2023-12-04T01:32:57;10.43;;;8.10;;
16524;SDS011;8375;33.594;-117.718;2023-12-04T01:35:28;7.97;;;4.60;;
16524;SDS011;8375;33.594;-117.718;2023-12-04T01:37:57;6.93;;;3.70;;
16524;SDS011;8375;33.594;-117.718;2023-12-04T01:40:26;12.47;;;8.83;;
16524;SDS011;8375;33.594;-117.718;2023-12-04T01:42:56;43.60;;;38.77;;
16524;SDS011;8375;33.594;-117.718;2023-12-04T01:45:25;96.23;;;63.00;;
16524;SDS011;8375;33.594;-117.718;2023-12-04T01:47:56;130.50;;;91.87;;
16524;SDS011;8375;33.594;-117.718;2023-12-04T01:50:32;36.33;;;26.23;;
16524;SDS011;8375;33.594;-117.718;2023-12-04T01:53:03;9.57;;;4.80;;
16524;SDS011;8375;33.594;-117.718;2023-12-04T01:55:32;9.90;;;3.80;;
16524;SDS011;8375;33.594;-117.718;2023-12-04T01:58:02;24.70;;;19.80;;
16524;SDS011;8375;33.594;-117.718;2023-12-04T02:00:36;58.53;;;45.77;;
16524;SDS011;8375;33.594;-117.718;2023-12-04T02:03:07;33.83;;;26.33;;
16524;SDS011;8375;33.594;-117.718;2023-12-04T02:05:43;18.07;;;13.37;;
16524;SDS011;8375;33.594;-117.718;2023-12-04T02:08:14;14.47;;;10.27;;
16524;SDS011;8375;33.594;-117.718;2023-12-04T02:10:44;11.47;;;7.07;;
16524;SDS011;8375;33.594;-117.718;2023-12-04T02:13:13;10.37;;;5.47;;
16524;SDS011;8375;33.594;-117.718;2023-12-04T02:15:44;6.77;;;4.90;;
16524;SDS011;8375;33.594;-117.718;2023-12-04T02:18:16;9.73;;;5.77;;
16524;SDS011;8375;33.594;-117.718;2023-12-04T02:20:49;11.73;;;5.50;;
16524;SDS011;8375;33.594;-117.718;2023-12-04T02:23:21;9.37;;;4.90;;
16524;SDS011;8375;33.594;-117.718;2023-12-04T02:25:52;7.30;;;4.97;;
16524;SDS011;8375;33.594;-117.718;2023-12-04T02:28:27;8.20;;;5.37;;
16524;SDS011;8375;33.594;-117.718;2023-12-04T02:31:00;11.70;;;8.87;;
16524;SDS011;8375;33.594;-117.718;2023-12-04T02:33:32;10.17;;;7.70;;
16524;SDS011;8375;33.594;-117.718;2023-12-04T02:36:03;11.13;;;7.93;;
16524;SDS011;8375;33.594;-117.718;2023-12-04T02:38:35;13.97;;;9.33;;
16524;SDS011;8375;33.594;-117.718;2023-12-04T02:41:07;11.87;;;8.03;;
16524;SDS011;8375;33.594;-117.718;2023-12-04T02:43:37;7.73;;;6.03;;
16524;SDS011;8375;33.594;-117.718;2023-12-04T02:46:07;10.60;;;6.67;;
16524;SDS011;8375;33.594;-117.718;2023-12-04T02:48:37;9.27;;;5.50;;
16524;SDS011;8375;33.594;-117.718;2023-12-04T02:51:07;12.20;;;5.30;;
16524;SDS011;8375;33.594;-117.718;2023-12-04T02:53:37;6.63;;;4.87;;
16524;SDS011;8375;33.594;-117.718;2023-12-04T02:56:08;9.00;;;5.10;;
16524;SDS011;8375;33.594;-117.718;2023-12-04T02:58:39;10.47;;;5.20;;
16524;SDS011;8375;33.594;-117.718;2023-12-04T03:01:08;8.83;;;4.90;;
16524;SDS011;8375;33.594;-117.718;2023-12-04T03:03:36;11.50;;;5.57;;
16524;SDS011;8375;33.594;-117.718;2023-12-04T03:06:06;7.33;;;6.20;;
16524;SDS011;8375;33.594;-117.718;2023-12-04T03:08:35;8.47;;;5.23;;
16524;SDS011;8375;33.594;-117.718;2023-12-04T03:11:04;10.10;;;5.57;;
16524;SDS011;8375;33.594;-117.718;2023-12-04T03:13:35;10.67;;;6.00;;
16524;SDS011;8375;33.594;-117.718;2023-12-04T03:16:04;11.57;;;6.13;;
16524;SDS011;8375;33.594;-117.718;2023-12-04T03:18:33;8.30;;;6.80;;
16524;SDS011;8375;33.594;-117.718;2023-12-04T03:21:03;9.23;;;6.17;;
16524;SDS011;8375;33.594;-117.718;2023-12-04T03:23:33;7.57;;;6.37;;
16524;SDS011;8375;33.594;-117.718;2023-12-04T03:26:02;8.13;;;5.87;;
16524;SDS011;8375;33.594;-117.718;2023-12-04T03:28:31;9.73;;;6.47;;
16524;SDS011;8375;33.594;-117.718;2023-12-04T03:31:01;10.33;;;6.33;;
16524;SDS011;8375;33.594;-117.718;2023-12-04T03:33:30;9.17;;;5.60;;
16524;SDS011;8375;33.594;-117.718;2023-12-04T03:35:59;10.17;;;5.80;;
16524;SDS011;8375;33.594;-117.718;2023-12-04T03:38:28;11.87;;;6.23;;
16524;SDS011;8375;33.594;-117.718;2023-12-04T03:40:57;8.97;;;5.97;;
16524;SDS011;8375;33.594;-117.718;2023-12-04T03:43:25;10.70;;;6.53;;
16524;SDS011;8375;33.594;-117.718;2023-12-04T03:45:54;13.97;;;7.13;;
16524;SDS011;8375;33.594;-117.718;2023-12-04T03:48:24;6.63;;;5.73;;
16524;SDS011;8375;33.594;-117.718;2023-12-04T03:50:53;10.63;;;5.90;;
16524;SDS011;8375;33.594;-117.718;2023-12-04T03:53:22;10.17;;;6.47;;
16524;SDS011;8375;33.594;-117.718;2023-12-04T03:55:50;12.47;;;6.30;;
16524;SDS011;8375;33.594;-117.718;2023-12-04T03:58:19;7.63;;;5.83;;
16524;SDS011;8375;33.594;-117.718;2023-12-04T04:00:48;11.63;;;6.50;;
16524;SDS011;8375;33.594;-117.718;2023-12-04T04:03:16;8.03;;;6.10;;
16524;SDS011;8375;33.594;-117.718;2023-12-04T04:05:47;10.23;;;6.33;;
16524;SDS011;8375;33.594;-117.718;2023-12-04T04:08:15;10.87;;;6.47;;
16524;SDS011;8375;33.594;-117.718;2023-12-04T04:10:44;11.47;;;6.53;;
16524;SDS011;8375;33.594;-117.718;2023-12-04T04:13:13;7.93;;;6.50;;
16524;SDS011;8375;33.594;-117.718;2023-12-04T04:15:41;9.83;;;6.43;;
16524;SDS011;8375;33.594;-117.718;2023-12-04T04:18:11;10.27;;;6.17;;
16524;SDS011;8375;33.594;-117.718;2023-12-04T04:20:40;10.40;;;6.57;;
16524;SDS011;8375;33.594;-117.718;2023-12-04T04:23:10;10.37;;;6.30;;
16524;SDS011;8375;33.594;-117.718;2023-12-04T04:25:39;12.03;;;6.97;;
16524;SDS011;8375;33.594;-117.718;2023-12-04T04:28:07;10.80;;;6.50;;
16524;SDS011;8375;33.594;-117.718;2023-12-04T04:30:36;10.33;;;6.67;;
16524;SDS011;8375;33.594;-117.718;2023-12-04T04:33:05;8.07;;;6.27;;
16524;SDS011;8375;33.594;-117.718;2023-12-04T04:35:34;11.87;;;6.97;;
16524;SDS011;8375;33.594;-117.718;2023-12-04T04:38:03;10.57;;;7.17;;
16524;SDS011;8375;33.594;-117.718;2023-12-04T04:40:34;10.80;;;7.07;;
16524;SDS011;8375;33.594;-117.718;2023-12-04T04:43:02;7.57;;;6.60;;
16524;SDS011;8375;33.594;-117.718;2023-12-04T04:45:31;11.57;;;7.10;;
16524;SDS011;8375;33.594;-117.718;2023-12-04T04:48:00;11.47;;;7.17;;
16524;SDS011;8375;33.594;-117.718;2023-12-04T04:50:29;10.30;;;8.10;;
16524;SDS011;8375;33.594;-117.718;2023-12-04T04:52:57;10.80;;;7.03;;
16524;SDS011;8375;33.594;-117.718;2023-12-04T04:55:26;10.80;;;7.57;;
16524;SDS011;8375;33.594;-117.718;2023-12-04T04:57:57;8.50;;;7.40;;
16524;SDS011;8375;33.594;-117.718;2023-12-04T05:00:26;10.00;;;8.70;;
16524;SDS011;8375;33.594;-117.718;2023-12-04T05:02:55;13.60;;;9.77;;
16524;SDS011;8375;33.594;-117.718;2023-12-04T05:05:23;15.27;;;9.17;;
16524;SDS011;8375;33.594;-117.718;2023-12-04T05:07:52;15.27;;;9.50;;
16524;SDS011;8375;33.594;-117.718;2023-12-04T05:10:21;11.17;;;8.80;;
16524;SDS011;8375;33.594;-117.718;2023-12-04T05:12:49;11.90;;;8.80;;
16524;SDS011;8375;33.594;-117.718;2023-12-04T05:15:20;14.60;;;8.20;;
16524;SDS011;8375;33.594;-117.718;2023-12-04T05:17:48;14.13;;;8.33;;
16524;SDS011;8375;33.594;-117.718;2023-12-04T05:20:17;13.63;;;9.00;;
16524;SDS011;8375;33.594;-117.718;2023-12-04T05:22:46;13.33;;;9.50;;
16524;SDS011;8375;33.594;-117.718;2023-12-04T05:25:14;19.13;;;10.13;;
16524;SDS011;8375;33.594;-117.718;2023-12-04T05:27:43;13.13;;;8.40;;
16524;SDS011;8375;33.594;-117.718;2023-12-04T05:30:12;13.67;;;8.90;;
16524;SDS011;8375;33.594;-117.718;2023-12-04T05:32:42;14.83;;;9.50;;
16524;SDS011;8375;33.594;-117.718;2023-12-04T05:35:11;14.93;;;10.50;;
16524;SDS011;8375;33.594;-117.718;2023-12-04T05:37:40;13.30;;;9.60;;
16524;SDS011;8375;33.594;-117.718;2023-12-04T05:40:08;14.97;;;10.97;;
16524;SDS011;8375;33.594;-117.718;2023-12-04T05:42:38;15.37;;;10.27;;
16524;SDS011;8375;33.594;-117.718;2023-12-04T05:45:07;16.03;;;10.90;;
16524;SDS011;8375;33.594;-117.718;2023-12-04T05:47:36;17.40;;;10.43;;
16524;SDS011;8375;33.594;-117.718;2023-12-04T05:50:07;17.73;;;10.30;;
16524;SDS011;8375;33.594;-117.718;2023-12-04T05:52:36;18.50;;;10.30;;
16524;SDS011;8375;33.594;-117.718;2023-12-04T05:55:05;14.23;;;10.43;;
16524;SDS011;8375;33.594;-117.718;2023-12-04T05:57:34;14.20;;;9.57;;
16524;SDS011;8375;33.594;-117.718;2023-12-04T06:00:03;19.57;;;11.37;;
16524;SDS011;8375;33.594;-117.718;2023-12-04T06:02:38;14.23;;;10.07;;
16524;SDS011;8375;33.594;-117.718;2023-12-04T06:05:08;17.07;;;9.30;;
16524;SDS011;8375;33.594;-117.718;2023-12-04T06:07:37;14.27;;;9.67;;
16524;SDS011;8375;33.594;-117.718;2023-12-04T06:10:07;17.90;;;11.93;;
16524;SDS011;8375;33.594;-117.718;2023-12-04T06:12:36;12.77;;;10.00;;
16524;SDS011;8375;33.594;-117.718;2023-12-04T06:15:05;14.23;;;10.13;;
16524;SDS011;8375;33.594;-117.718;2023-12-04T06:17:35;14.97;;;11.13;;
16524;SDS011;8375;33.594;-117.718;2023-12-04T06:20:04;17.40;;;10.60;;
16524;SDS011;8375;33.594;-117.718;2023-12-04T06:22:35;13.53;;;10.73;;
16524;SDS011;8375;33.594;-117.718;2023-12-04T06:25:05;12.33;;;10.80;;
16524;SDS011;8375;33.594;-117.718;2023-12-04T06:27:34;16.53;;;11.57;;
16524;SDS011;8375;33.594;-117.718;2023-12-04T06:30:05;14.53;;;11.00;;
16524;SDS011;8375;33.594;-117.718;2023-12-04T06:32:34;14.97;;;11.37;;
16524;SDS011;8375;33.594;-117.718;2023-12-04T06:35:03;15.97;;;11.40;;
16524;SDS011;8375;33.594;-117.718;2023-12-04T06:37:33;14.13;;;12.10;;
16524;SDS011;8375;33.594;-117.718;2023-12-04T06:40:06;17.33;;;12.03;;
16524;SDS011;8375;33.594;-117.718;2023-12-04T06:42:37;16.07;;;12.13;;
16524;SDS011;8375;33.594;-117.718;2023-12-04T06:45:06;20.30;;;13.30;;
16524;SDS011;8375;33.594;-117.718;2023-12-04T06:47:36;15.10;;;12.07;;
16524;SDS011;8375;33.594;-117.718;2023-12-04T06:50:07;22.03;;;12.67;;
16524;SDS011;8375;33.594;-117.718;2023-12-04T06:52:38;16.13;;;12.27;;
16524;SDS011;8375;33.594;-117.718;2023-12-04T06:55:07;17.73;;;12.00;;
16524;SDS011;8375;33.594;-117.718;2023-12-04T06:57:36;17.53;;;13.17;;
16524;SDS011;8375;33.594;-117.718;2023-12-04T07:00:05;16.33;;;12.60;;
16524;SDS011;8375;33.594;-117.718;2023-12-04T07:02:38;20.03;;;12.97;;
16524;SDS011;8375;33.594;-117.718;2023-12-04T07:05:07;19.77;;;13.53;;
16524;SDS011;8375;33.594;-117.718;2023-12-04T07:07:35;18.77;;;14.63;;
16524;SDS011;8375;33.594;-117.718;2023-12-04T07:10:06;21.37;;;13.73;;
16524;SDS011;8375;33.594;-117.718;2023-12-04T07:12:40;18.57;;;13.63;;
16524;SDS011;8375;33.594;-117.718;2023-12-04T07:15:09;19.80;;;13.57;;
16524;SDS011;8375;33.594;-117.718;2023-12-04T07:17:38;17.60;;;12.60;;
16524;SDS011;8375;33.594;-117.718;2023-12-04T07:20:08;17.67;;;13.17;;
16524;SDS011;8375;33.594;-117.718;2023-12-04T07:22:40;20.00;;;14.40;;
16524;SDS011;8375;33.594;-117.718;2023-12-04T07:25:08;17.83;;;13.20;;
16524;SDS011;8375;33.594;-117.718;2023-12-04T07:27:37;19.83;;;13.73;;
16524;SDS011;8375;33.594;-117.718;2023-12-04T07:30:06;20.90;;;14.53;;
16524;SDS011;8375;33.594;-117.718;2023-12-04T07:32:35;19.37;;;13.53;;
16524;SDS011;8375;33.594;-117.718;2023-12-04T07:35:04;17.57;;;12.53;;
16524;SDS011;8375;33.594;-117.718;2023-12-04T07:37:34;17.47;;;13.00;;
16524;SDS011;8375;33.594;-117.718;2023-12-04T07:40:05;18.53;;;12.77;;
16524;SDS011;8375;33.594;-117.718;2023-12-04T07:42:36;16.93;;;13.40;;
16524;SDS011;8375;33.594;-117.718;2023-12-04T07:45:05;18.80;;;13.73;;
16524;SDS011;8375;33.594;-117.718;2023-12-04T07:47:36;18.40;;;13.33;;
16524;SDS011;8375;33.594;-117.718;2023-12-04T07:50:05;17.33;;;12.63;;
16524;SDS011;8375;33.594;-117.718;2023-12-04T07:52:34;19.40;;;13.53;;
16524;SDS011;8375;33.594;-117.718;2023-12-04T07:55:04;25.80;;;15.27;;
16524;SDS011;8375;33.594;-117.718;2023-12-04T07:57:33;19.27;;;13.50;;
16524;SDS011;8375;33.594;-117.718;2023-12-04T08:00:02;21.67;;;13.97;;
16524;SDS011;8375;33.594;-117.718;2023-12-04T08:02:31;17.10;;;13.23;;
16524;SDS011;8375;33.594;-117.718;2023-12-04T08:05:00;20.03;;;13.83;;
16524;SDS011;8375;33.594;-117.718;2023-12-04T08:07:29;18.07;;;14.20;;
16524;SDS011;8375;33.594;-117.718;2023-12-04T08:09:57;18.50;;;14.37;;
16524;SDS011;8375;33.594;-117.718;2023-12-04T08:12:27;20.77;;;13.90;;
16524;SDS011;8375;33.594;-117.718;2023-12-04T08:14:56;17.10;;;14.20;;
16524;SDS011;8375;33.594;-117.718;2023-12-04T08:17:25;19.40;;;15.13;;
16524;SDS011;8375;33.594;-117.718;2023-12-04T08:19:53;21.83;;;15.90;;
16524;SDS011;8375;33.594;-117.718;2023-12-04T08:22:22;20.20;;;14.47;;
16524;SDS011;8375;33.594;-117.718;2023-12-04T08:24:50;21.03;;;14.80;;
16524;SDS011;8375;33.594;-117.718;2023-12-04T08:27:19;21.83;;;15.60;;
16524;SDS011;8375;33.594;-117.718;2023-12-04T08:29:49;22.43;;;15.80;;
16524;SDS011;8375;33.594;-117.718;2023-12-04T08:32:18;19.90;;;14.40;;
16524;SDS011;8375;33.594;-117.718;2023-12-04T08:34:48;19.10;;;15.47;;
16524;SDS011;8375;33.594;-117.718;2023-12-04T08:37:16;21.77;;;14.57;;
16524;SDS011;8375;33.594;-117.718;2023-12-04T08:39:45;18.17;;;14.67;;
16524;SDS011;8375;33.594;-117.718;2023-12-04T08:42:14;18.33;;;14.00;;
16524;SDS011;8375;33.594;-117.718;2023-12-04T08:44:44;21.10;;;15.07;;
16524;SDS011;8375;33.594;-117.718;2023-12-04T08:47:14;18.30;;;14.43;;
16524;SDS011;8375;33.594;-117.718;2023-12-04T08:49:43;21.83;;;14.33;;
16524;SDS011;8375;33.594;-117.718;2023-12-04T08:52:12;20.80;;;14.30;;
16524;SDS011;8375;33.594;-117.718;2023-12-04T08:54:41;17.83;;;13.83;;
16524;SDS011;8375;33.594;-117.718;2023-12-04T08:57:09;18.67;;;14.47;;
16524;SDS011;8375;33.594;-117.718;2023-12-04T08:59:38;16.40;;;14.37;;
16524;SDS011;8375;33.594;-117.718;2023-12-04T09:02:07;19.73;;;13.40;;
16524;SDS011;8375;33.594;-117.718;2023-12-04T09:04:37;16.97;;;12.73;;
16524;SDS011;8375;33.594;-117.718;2023-12-04T09:07:06;16.70;;;12.93;;
16524;SDS011;8375;33.594;-117.718;2023-12-04T09:09:34;16.23;;;12.67;;
16524;SDS011;8375;33.594;-117.718;2023-12-04T09:12:03;17.77;;;12.87;;
16524;SDS011;8375;33.594;-117.718;2023-12-04T09:14:33;19.83;;;13.33;;
16524;SDS011;8375;33.594;-117.718;2023-12-04T09:17:01;18.30;;;13.37;;
16524;SDS011;8375;33.594;-117.718;2023-12-04T09:19:30;19.20;;;13.50;;
16524;SDS011;8375;33.594;-117.718;2023-12-04T09:22:01;19.17;;;13.30;;
16524;SDS011;8375;33.594;-117.718;2023-12-04T09:24:29;20.43;;;13.57;;
16524;SDS011;8375;33.594;-117.718;2023-12-04T09:26:59;20.77;;;12.70;;
16524;SDS011;8375;33.594;-117.718;2023-12-04T09:29:27;18.17;;;14.33;;
16524;SDS011;8375;33.594;-117.718;2023-12-04T09:31:56;23.23;;;14.13;;
16524;SDS011;8375;33.594;-117.718;2023-12-04T09:34:24;24.37;;;15.27;;
16524;SDS011;8375;33.594;-117.718;2023-12-04T09:36:53;15.87;;;13.57;;
16524;SDS011;8375;33.594;-117.718;2023-12-04T09:39:23;18.07;;;14.13;;
16524;SDS011;8375;33.594;-117.718;2023-12-04T09:41:52;17.27;;;13.27;;
16524;SDS011;8375;33.594;-117.718;2023-12-04T09:44:22;17.00;;;13.10;;
16524;SDS011;8375;33.594;-117.718;2023-12-04T09:46:53;18.40;;;12.80;;
16524;SDS011;8375;33.594;-117.718;2023-12-04T09:49:22;18.43;;;13.37;;
16524;SDS011;8375;33.594;-117.718;2023-12-04T09:51:54;16.97;;;13.70;;
16524;SDS011;8375;33.594;-117.718;2023-12-04T09:54:26;22.13;;;14.27;;
16524;SDS011;8375;33.594;-117.718;2023-12-04T09:56:56;19.37;;;13.37;;
16524;SDS011;8375;33.594;-117.718;2023-12-04T09:59:25;16.00;;;13.27;;
16524;SDS011;8375;33.594;-117.718;2023-12-04T10:01:55;17.40;;;13.43;;
16524;SDS011;8375;33.594;-117.718;2023-12-04T10:04:25;15.83;;;12.70;;
16524;SDS011;8375;33.594;-117.718;2023-12-04T10:06:53;17.70;;;13.70;;
16524;SDS011;8375;33.594;-117.718;2023-12-04T10:09:22;19.97;;;12.97;;
16524;SDS011;8375;33.594;-117.718;2023-12-04T10:11:53;17.33;;;11.87;;
16524;SDS011;8375;33.594;-117.718;2023-12-04T10:14:24;18.70;;;13.07;;
16524;SDS011;8375;33.594;-117.718;2023-12-04T10:16:52;16.47;;;12.77;;
16524;SDS011;8375;33.594;-117.718;2023-12-04T10:19:22;15.07;;;11.23;;
16524;SDS011;8375;33.594;-117.718;2023-12-04T10:21:52;16.80;;;11.43;;
16524;SDS011;8375;33.594;-117.718;2023-12-04T10:24:28;13.87;;;11.47;;
16524;SDS011;8375;33.594;-117.718;2023-12-04T10:27:00;17.27;;;11.53;;
16524;SDS011;8375;33.594;-117.718;2023-12-04T10:29:40;16.03;;;11.03;;
16524;SDS011;8375;33.594;-117.718;2023-12-04T10:32:09;17.90;;;11.97;;
16524;SDS011;8375;33.594;-117.718;2023-12-04T10:34:38;14.53;;;11.83;;
16524;SDS011;8375;33.594;-117.718;2023-12-04T10:37:08;16.77;;;11.27;;
16524;SDS011;8375;33.594;-117.718;2023-12-04T10:39:45;17.70;;;11.57;;
16524;SDS011;8375;33.594;-117.718;2023-12-04T10:42:25;17.67;;;11.13;;
16524;SDS011;8375;33.594;-117.718;2023-12-04T10:44:55;15.70;;;11.00;;
16524;SDS011;8375;33.594;-117.718;2023-12-04T10:47:24;14.37;;;10.63;;
16524;SDS011;8375;33.594;-117.718;2023-12-04T10:49:53;22.87;;;11.83;;
16524;SDS011;8375;33.594;-117.718;2023-12-04T10:52:23;18.57;;;11.30;;
16524;SDS011;8375;33.594;-117.718;2023-12-04T10:54:51;15.13;;;10.50;;
16524;SDS011;8375;33.594;-117.718;2023-12-04T10:57:21;19.20;;;10.67;;
16524;SDS011;8375;33.594;-117.718;2023-12-04T10:59:56;16.63;;;12.00;;
16524;SDS011;8375;33.594;-117.718;2023-12-04T11:02:28;19.73;;;12.33;;
16524;SDS011;8375;33.594;-117.718;2023-12-04T11:05:01;16.93;;;11.53;;
16524;SDS011;8375;33.594;-117.718;2023-12-04T11:07:39;15.93;;;11.67;;
16524;SDS011;8375;33.594;-117.718;2023-12-04T11:10:09;18.03;;;11.67;;
16524;SDS011;8375;33.594;-117.718;2023-12-04T11:12:38;17.63;;;11.70;;
16524;SDS011;8375;33.594;-117.718;2023-12-04T11:15:14;18.77;;;12.17;;
16524;SDS011;8375;33.594;-117.718;2023-12-04T11:17:46;15.70;;;12.60;;
16524;SDS011;8375;33.594;-117.718;2023-12-04T11:20:19;20.73;;;12.87;;
16524;SDS011;8375;33.594;-117.718;2023-12-04T11:22:51;18.40;;;13.60;;
16524;SDS011;8375;33.594;-117.718;2023-12-04T11:25:21;19.87;;;13.23;;
16524;SDS011;8375;33.594;-117.718;2023-12-04T11:27:51;21.70;;;14.07;;
16524;SDS011;8375;33.594;-117.718;2023-12-04T11:30:23;19.40;;;13.63;;
16524;SDS011;8375;33.594;-117.718;2023-12-04T11:32:52;20.50;;;13.73;;
16524;SDS011;8375;33.594;-117.718;2023-12-04T11:35:25;18.50;;;13.10;;
16524;SDS011;8375;33.594;-117.718;2023-12-04T11:37:54;20.37;;;13.03;;
16524;SDS011;8375;33.594;-117.718;2023-12-04T11:40:23;19.80;;;12.50;;
16524;SDS011;8375;33.594;-117.718;2023-12-04T11:42:52;18.20;;;12.30;;
16524;SDS011;8375;33.594;-117.718;2023-12-04T11:45:21;17.73;;;12.97;;
16524;SDS011;8375;33.594;-117.718;2023-12-04T11:47:52;19.30;;;12.03;;
16524;SDS011;8375;33.594;-117.718;2023-12-04T11:50:24;16.37;;;11.63;;
16524;SDS011;8375;33.594;-117.718;2023-12-04T11:52:52;19.23;;;11.87;;
16524;SDS011;8375;33.594;-117.718;2023-12-04T11:55:23;18.33;;;13.37;;
16524;SDS011;8375;33.594;-117.718;2023-12-04T11:57:54;18.40;;;12.13;;
16524;SDS011;8375;33.594;-117.718;2023-12-04T12:00:25;17.43;;;11.93;;
16524;SDS011;8375;33.594;-117.718;2023-12-04T12:03:03;17.97;;;12.10;;
16524;SDS011;8375;33.594;-117.718;2023-12-04T12:05:35;17.00;;;11.23;;
16524;SDS011;8375;33.594;-117.718;2023-12-04T12:08:08;15.20;;;11.70;;
16524;SDS011;8375;33.594;-117.718;2023-12-04T12:10:37;20.57;;;11.77;;
16524;SDS011;8375;33.594;-117.718;2023-12-04T12:13:05;16.77;;;11.53;;
16524;SDS011;8375;33.594;-117.718;2023-12-04T12:15:36;17.07;;;11.50;;
16524;SDS011;8375;33.594;-117.718;2023-12-04T12:18:06;16.00;;;10.93;;
16524;SDS011;8375;33.594;-117.718;2023-12-04T12:20:36;13.93;;;10.60;;
16524;SDS011;8375;33.594;-117.718;2023-12-04T12:23:05;15.80;;;11.57;;
16524;SDS011;8375;33.594;-117.718;2023-12-04T12:25:34;18.00;;;11.77;;
16524;SDS011;8375;33.594;-117.718;2023-12-04T12:28:06;21.50;;;11.97;;
16524;SDS011;8375;33.594;-117.718;2023-12-04T12:30:36;18.90;;;11.70;;
16524;SDS011;8375;33.594;-117.718;2023-12-04T12:33:05;17.93;;;11.53;;
16524;SDS011;8375;33.594;-117.718;2023-12-04T12:35:34;19.93;;;12.33;;
16524;SDS011;8375;33.594;-117.718;2023-12-04T12:38:02;17.13;;;12.10;;
16524;SDS011;8375;33.594;-117.718;2023-12-04T12:40:31;15.97;;;11.57;;
16524;SDS011;8375;33.594;-117.718;2023-12-04T12:43:03;15.63;;;11.37;;
16524;SDS011;8375;33.594;-117.718;2023-12-04T12:45:40;19.17;;;11.97;;
16524;SDS011;8375;33.594;-117.718;2023-12-04T12:48:12;17.90;;;12.27;;
16524;SDS011;8375;33.594;-117.718;2023-12-04T12:50:41;14.23;;;11.13;;
16524;SDS011;8375;33.594;-117.718;2023-12-04T12:53:10;18.73;;;11.93;;
16524;SDS011;8375;33.594;-117.718;2023-12-04T12:55:40;18.17;;;12.47;;
16524;SDS011;8375;33.594;-117.718;2023-12-04T12:58:09;19.43;;;12.57;;
16524;SDS011;8375;33.594;-117.718;2023-12-04T13:00:40;19.83;;;12.67;;
16524;SDS011;8375;33.594;-117.718;2023-12-04T13:03:13;18.60;;;13.47;;
16524;SDS011;8375;33.594;-117.718;2023-12-04T13:05:42;20.90;;;13.73;;
16524;SDS011;8375;33.594;-117.718;2023-12-04T13:08:11;19.97;;;13.67;;
16524;SDS011;8375;33.594;-117.718;2023-12-04T13:10:40;23.67;;;14.40;;
16524;SDS011;8375;33.594;-117.718;2023-12-04T13:13:09;19.37;;;14.10;;
16524;SDS011;8375;33.594;-117.718;2023-12-04T13:15:40;22.70;;;15.23;;
16524;SDS011;8375;33.594;-117.718;2023-12-04T13:18:09;21.73;;;16.53;;
16524;SDS011;8375;33.594;-117.718;2023-12-04T13:20:38;18.73;;;13.83;;
16524;SDS011;8375;33.594;-117.718;2023-12-04T13:23:06;20.33;;;14.93;;
16524;SDS011;8375;33.594;-117.718;2023-12-04T13:25:35;27.20;;;15.30;;
16524;SDS011;8375;33.594;-117.718;2023-12-04T13:28:04;23.17;;;15.00;;
16524;SDS011;8375;33.594;-117.718;2023-12-04T13:30:33;20.33;;;14.50;;
16524;SDS011;8375;33.594;-117.718;2023-12-04T13:33:03;18.77;;;14.40;;
16524;SDS011;8375;33.594;-117.718;2023-12-04T13:35:32;19.37;;;14.30;;
16524;SDS011;8375;33.594;-117.718;2023-12-04T13:38:00;20.77;;;14.70;;
16524;SDS011;8375;33.594;-117.718;2023-12-04T13:40:33;18.57;;;14.67;;
16524;SDS011;8375;33.594;-117.718;2023-12-04T13:43:03;18.70;;;14.27;;
16524;SDS011;8375;33.594;-117.718;2023-12-04T13:45:48;20.07;;;13.80;;
16524;SDS011;8375;33.594;-117.718;2023-12-04T13:48:18;20.93;;;13.73;;
16524;SDS011;8375;33.594;-117.718;2023-12-04T13:50:47;21.20;;;14.97;;
16524;SDS011;8375;33.594;-117.718;2023-12-04T13:53:16;19.07;;;13.63;;
16524;SDS011;8375;33.594;-117.718;2023-12-04T14:01:01;21.57;;;13.80;;
16524;SDS011;8375;33.594;-117.718;2023-12-04T14:03:40;22.07;;;13.97;;
16524;SDS011;8375;33.594;-117.718;2023-12-04T14:06:10;23.07;;;13.53;;
16524;SDS011;8375;33.594;-117.718;2023-12-04T14:08:40;19.50;;;13.63;;
16524;SDS011;8375;33.594;-117.718;2023-12-04T14:11:09;24.30;;;13.43;;
16524;SDS011;8375;33.594;-117.718;2023-12-04T14:13:37;20.83;;;13.63;;
16524;SDS011;8375;33.594;-117.718;2023-12-04T14:16:06;21.70;;;13.77;;
16524;SDS011;8375;33.594;-117.718;2023-12-04T14:18:35;19.63;;;12.50;;
16524;SDS011;8375;33.594;-117.718;2023-12-04T14:21:06;23.30;;;12.73;;
16524;SDS011;8375;33.594;-117.718;2023-12-04T14:23:35;21.10;;;12.43;;